Time;durP1;ratioP1;P1;durP2;ratioP2;P2;SDS_P1;SDS_P2;PMS_P1;PMS_P2;Temp;Humidity;BMP_temperature;BMP_pressure;BME280_temperature;BME280_humidity;BME280_pressure;Samples;Min_cycle;Max_cycle;Signal;HPM_P1;HPM_P2
2023/07/07 00:02:18;;;;;;;5.60;2.50;;;;;;;;;;5026206;28;20223;-81
2023/07/07 00:04:45;;;;;;;3.00;2.70;;;;;;;;;;5024133;28;20231;-81
2023/07/07 00:07:14;;;;;;;4.60;3.00;;;;;;;;;;5022728;28;20204;-81
2023/07/07 00:09:41;;;;;;;3.00;2.80;;;;;;;;;;5022335;28;20286;-81
2023/07/07 00:12:08;;;;;;;3.97;3.00;;;;;;;;;;5025765;28;20738;-81
2023/07/07 00:14:35;;;;;;;3.00;2.70;;;;;;;;;;5025488;28;20233;-81
2023/07/07 00:17:03;;;;;;;6.13;3.27;;;;;;;;;;5014416;28;20199;-81
2023/07/07 00:19:32;;;;;;;5.90;2.80;;;;;;;;;;5020536;28;20591;-81
2023/07/07 00:22:00;;;;;;;3.07;2.87;;;;;;;;;;5025086;28;20714;-81
2023/07/07 00:24:28;;;;;;;3.60;3.00;;;;;;;;;;5025059;28;20238;-81
2023/07/07 00:26:55;;;;;;;3.17;2.83;;;;;;;;;;5023195;28;20232;-81
2023/07/07 00:29:22;;;;;;;3.13;2.83;;;;;;;;;;5021715;28;20229;-81
2023/07/07 00:31:49;;;;;;;3.00;2.70;;;;;;;;;;5023493;28;20223;-81
2023/07/07 00:34:16;;;;;;;4.63;3.23;;;;;;;;;;5025119;28;20737;-81
2023/07/07 00:36:43;;;;;;;5.10;3.10;;;;;;;;;;5025305;28;20210;-81
2023/07/07 00:39:10;;;;;;;4.50;3.37;;;;;;;;;;5024889;28;20226;-81
2023/07/07 00:41:39;;;;;;;3.33;2.50;;;;;;;;;;5025476;28;20243;-81
2023/07/07 00:44:07;;;;;;;4.43;2.90;;;;;;;;;;5024649;28;20277;-81
2023/07/07 00:46:36;;;;;;;3.10;2.90;;;;;;;;;;5025499;28;20562;-81
2023/07/07 00:49:04;;;;;;;3.03;2.73;;;;;;;;;;5020932;28;20262;-81
2023/07/07 00:51:32;;;;;;;4.23;2.73;;;;;;;;;;5021866;28;20211;-80
2023/07/07 00:53:59;;;;;;;3.30;2.93;;;;;;;;;;5023798;28;20238;-81
2023/07/07 00:56:30;;;;;;;4.40;3.17;;;;;;;;;;5017268;28;20214;-81
2023/07/07 00:59:02;;;;;;;3.13;2.53;;;;;;;;;;5012803;28;20277;-81
2023/07/07 01:01:29;;;;;;;5.00;3.03;;;;;;;;;;5006719;28;20225;-81
2023/07/07 01:03:58;;;;;;;4.63;2.67;;;;;;;;;;5029970;28;20231;-81
2023/07/07 01:06:27;;;;;;;3.40;3.10;;;;;;;;;;5017647;28;20230;-81
2023/07/07 01:08:58;;;;;;;3.07;2.73;;;;;;;;;;5028808;28;20236;-81
2023/07/07 01:11:25;;;;;;;3.50;3.07;;;;;;;;;;5026805;28;20665;-81
2023/07/07 01:13:52;;;;;;;4.70;3.00;;;;;;;;;;5023944;28;20236;-81
2023/07/07 01:16:26;;;;;;;4.37;2.57;;;;;;;;;;5024837;28;20195;-81
2023/07/07 01:18:56;;;;;;;6.73;3.00;;;;;;;;;;5023983;28;20726;-81
2023/07/07 01:21:29;;;;;;;3.93;2.80;;;;;;;;;;5024732;28;20687;-81
2023/07/07 01:24:09;;;;;;;2.60;2.40;;;;;;;;;;5021650;28;20243;-81
2023/07/07 01:26:43;;;;;;;3.90;3.00;;;;;;;;;;5020968;28;20311;-81
2023/07/07 01:29:23;;;;;;;5.17;3.00;;;;;;;;;;5013031;28;20242;-81
2023/07/07 01:31:54;;;;;;;3.50;2.80;;;;;;;;;;5021748;28;20238;-81
2023/07/07 01:34:21;;;;;;;3.13;2.87;;;;;;;;;;5023964;28;20245;-81
2023/07/07 01:36:48;;;;;;;7.77;3.10;;;;;;;;;;5023217;28;20207;-81
2023/07/07 01:39:15;;;;;;;3.97;3.13;;;;;;;;;;5020123;28;20223;-81
2023/07/07 01:41:46;;;;;;;4.17;3.17;;;;;;;;;;5020612;28;21481;-81
2023/07/07 01:44:15;;;;;;;4.23;2.90;;;;;;;;;;5023895;28;20234;-81
2023/07/07 01:46:45;;;;;;;3.30;3.00;;;;;;;;;;5023802;28;20649;-81
2023/07/07 01:49:17;;;;;;;3.43;3.20;;;;;;;;;;5020039;28;20234;-81
2023/07/07 01:51:46;;;;;;;3.67;2.80;;;;;;;;;;5020868;28;20228;-81
2023/07/07 01:54:14;;;;;;;3.80;3.10;;;;;;;;;;5023420;28;20735;-81
2023/07/07 01:56:43;;;;;;;4.60;2.70;;;;;;;;;;5023897;28;20213;-81
2023/07/07 01:59:10;;;;;;;4.07;3.03;;;;;;;;;;5012683;28;20238;-81
2023/07/07 02:01:37;;;;;;;5.03;3.10;;;;;;;;;;5024599;28;20234;-81
2023/07/07 02:04:04;;;;;;;3.23;2.50;;;;;;;;;;5023055;28;20697;-81
2023/07/07 02:06:33;;;;;;;3.00;2.80;;;;;;;;;;5023729;28;20710;-81
2023/07/07 02:09:00;;;;;;;4.80;2.97;;;;;;;;;;5020630;28;20230;-81
2023/07/07 02:11:27;;;;;;;6.97;2.73;;;;;;;;;;5020272;28;20214;-81
2023/07/07 02:13:54;;;;;;;5.37;2.53;;;;;;;;;;5021008;28;20235;-81
2023/07/07 02:16:21;;;;;;;3.53;3.30;;;;;;;;;;5023759;28;20209;-81
2023/07/07 02:18:48;;;;;;;6.43;2.87;;;;;;;;;;5022321;28;20258;-81
2023/07/07 02:21:16;;;;;;;4.77;2.63;;;;;;;;;;5023964;28;20209;-81
2023/07/07 02:23:45;;;;;;;2.97;2.33;;;;;;;;;;5023084;28;20258;-81
2023/07/07 02:26:13;;;;;;;4.00;2.60;;;;;;;;;;5012180;28;20250;-81
2023/07/07 02:28:40;;;;;;;3.10;2.50;;;;;;;;;;5019637;28;20231;-81
2023/07/07 02:31:08;;;;;;;4.93;2.60;;;;;;;;;;5023030;28;20226;-81
2023/07/07 02:33:35;;;;;;;2.47;2.27;;;;;;;;;;5022797;28;20733;-81
2023/07/07 02:36:02;;;;;;;3.00;2.73;;;;;;;;;;5023258;28;20199;-81
2023/07/07 02:38:30;;;;;;;3.13;2.47;;;;;;;;;;5022734;28;20712;-81
2023/07/07 02:40:58;;;;;;;2.77;2.30;;;;;;;;;;5021800;28;20206;-81
2023/07/07 02:43:25;;;;;;;3.57;2.77;;;;;;;;;;5018511;28;20645;-81
2023/07/07 02:45:53;;;;;;;6.37;2.67;;;;;;;;;;5020651;28;20231;-81
2023/07/07 02:48:20;;;;;;;12.07;2.73;;;;;;;;;;5022502;28;20595;-81
2023/07/07 02:50:54;;;;;;;2.43;2.20;;;;;;;;;;5022814;28;20831;-81
2023/07/07 02:53:21;;;;;;;5.67;2.40;;;;;;;;;;5019360;28;20250;-81
2023/07/07 02:55:48;;;;;;;3.17;2.60;;;;;;;;;;5020091;28;20215;-81
2023/07/07 02:58:17;;;;;;;2.90;2.60;;;;;;;;;;5022447;28;20234;-81
2023/07/07 03:00:44;;;;;;;2.97;2.60;;;;;;;;;;5028579;28;20230;-81
2023/07/07 03:03:11;;;;;;;5.33;2.60;;;;;;;;;;5011030;28;20227;-81
2023/07/07 03:05:38;;;;;;;4.20;2.70;;;;;;;;;;5019469;28;20599;-81
2023/07/07 03:08:05;;;;;;;2.90;2.60;;;;;;;;;;5021301;28;20231;-81
2023/07/07 03:10:33;;;;;;;6.20;2.90;;;;;;;;;;5022937;28;20233;-81
2023/07/07 03:13:00;;;;;;;3.83;2.80;;;;;;;;;;5020528;28;20234;-81
2023/07/07 03:15:38;;;;;;;3.87;2.90;;;;;;;;;;5019571;28;20215;-81
2023/07/07 03:18:05;;;;;;;3.73;2.77;;;;;;;;;;5021193;28;20238;-80
2023/07/07 03:20:32;;;;;;;4.30;3.00;;;;;;;;;;5023170;28;20212;-81
2023/07/07 03:23:00;;;;;;;3.30;3.00;;;;;;;;;;5020764;28;20234;-81
2023/07/07 03:25:27;;;;;;;3.00;2.77;;;;;;;;;;5019571;28;20227;-81
2023/07/07 03:27:54;;;;;;;4.57;2.70;;;;;;;;;;5019680;28;20246;-81
2023/07/07 03:30:21;;;;;;;2.77;2.53;;;;;;;;;;5022763;28;20214;-81
2023/07/07 03:32:49;;;;;;;3.07;2.67;;;;;;;;;;5022042;28;20228;-81
2023/07/07 03:35:16;;;;;;;3.30;3.00;;;;;;;;;;5019276;28;20291;-81
2023/07/07 03:37:43;;;;;;;2.97;2.67;;;;;;;;;;5018823;28;20211;-81
2023/07/07 03:40:11;;;;;;;3.20;2.70;;;;;;;;;;5021893;28;20674;-81
2023/07/07 03:42:38;;;;;;;4.03;3.20;;;;;;;;;;5022363;28;20720;-86
2023/07/07 03:45:05;;;;;;;2.93;2.50;;;;;;;;;;5020564;28;20218;-86
2023/07/07 03:47:32;;;;;;;2.67;2.47;;;;;;;;;;5019623;28;20693;-86
2023/07/07 03:50:01;;;;;;;3.47;2.70;;;;;;;;;;5027395;28;20231;-86
2023/07/07 03:52:28;;;;;;;3.13;2.83;;;;;;;;;;5019763;28;20606;-86
2023/07/07 03:54:55;;;;;;;3.10;2.80;;;;;;;;;;5022589;28;20740;-87
2023/07/07 03:57:22;;;;;;;3.03;2.73;;;;;;;;;;5026653;28;20226;-85
2023/07/07 03:59:49;;;;;;;5.73;2.80;;;;;;;;;;5025861;28;20759;-86
2023/07/07 04:02:16;;;;;;;2.73;2.53;;;;;;;;;;5026360;28;20226;-86
2023/07/07 04:04:44;;;;;;;3.07;2.87;;;;;;;;;;5025843;28;20230;-85
2023/07/07 04:07:12;;;;;;;3.27;2.97;;;;;;;;;;5026244;28;20234;-86
2023/07/07 04:09:39;;;;;;;5.13;2.50;;;;;;;;;;5021807;28;20258;-86
2023/07/07 04:12:09;;;;;;;2.80;2.60;;;;;;;;;;5023656;28;20241;-86
2023/07/07 04:14:36;;;;;;;3.30;3.00;;;;;;;;;;5022251;28;20239;-86
2023/07/07 04:17:03;;;;;;;3.77;2.90;;;;;;;;;;5024338;28;20230;-85
2023/07/07 04:19:31;;;;;;;4.90;2.83;;;;;;;;;;5025431;28;20716;-86
2023/07/07 04:21:58;;;;;;;3.07;2.80;;;;;;;;;;5024713;28;20230;-85
2023/07/07 04:24:27;;;;;;;8.27;3.10;;;;;;;;;;5022142;28;20242;-85
2023/07/07 04:26:54;;;;;;;4.00;2.80;;;;;;;;;;5023035;28;20705;-85
2023/07/07 04:29:21;;;;;;;5.37;3.20;;;;;;;;;;5025390;28;20230;-85
2023/07/07 04:31:49;;;;;;;7.37;3.40;;;;;;;;;;5025814;28;20230;-85
2023/07/07 04:34:16;;;;;;;6.93;3.47;;;;;;;;;;5021972;28;20707;-85
2023/07/07 04:36:44;;;;;;;6.67;3.27;;;;;;;;;;5022346;28;20231;-85
2023/07/07 04:39:11;;;;;;;7.07;3.30;;;;;;;;;;5029869;28;20230;-85
2023/07/07 04:41:39;;;;;;;3.13;2.87;;;;;;;;;;5022167;28;20239;-85
2023/07/07 04:44:06;;;;;;;7.20;3.50;;;;;;;;;;5023549;28;20235;-85
2023/07/07 04:46:35;;;;;;;4.03;3.40;;;;;;;;;;5028135;28;20231;-85
2023/07/07 04:49:06;;;;;;;3.60;3.30;;;;;;;;;;5022634;28;20621;-85
2023/07/07 04:51:33;;;;;;;4.03;2.90;;;;;;;;;;5025558;28;20214;-86
2023/07/07 04:54:01;;;;;;;5.30;3.27;;;;;;;;;;5023540;28;20250;-85
2023/07/07 04:56:28;;;;;;;4.43;3.90;;;;;;;;;;5022197;28;20206;-86
2023/07/07 04:58:57;;;;;;;6.47;3.40;;;;;;;;;;5021374;28;20238;-85
2023/07/07 05:01:26;;;;;;;4.57;3.87;;;;;;;;;;5021868;28;20203;-85
2023/07/07 05:03:54;;;;;;;6.97;3.53;;;;;;;;;;5021472;28;20235;-86
2023/07/07 05:06:21;;;;;;;7.13;4.27;;;;;;;;;;5024513;28;20230;-86
2023/07/07 05:08:48;;;;;;;4.93;3.83;;;;;;;;;;5024794;28;20774;-86
2023/07/07 05:11:17;;;;;;;5.43;3.90;;;;;;;;;;5016681;28;20229;-85
2023/07/07 05:13:44;;;;;;;6.97;3.93;;;;;;;;;;5017576;28;20254;-85
2023/07/07 05:16:13;;;;;;;4.20;3.73;;;;;;;;;;5023739;28;20681;-86
2023/07/07 05:18:41;;;;;;;4.37;3.97;;;;;;;;;;5018096;28;20238;-86
2023/07/07 05:21:09;;;;;;;4.80;4.07;;;;;;;;;;5023302;28;20235;-85
2023/07/07 05:23:36;;;;;;;4.77;4.20;;;;;;;;;;5024384;28;20277;-85
2023/07/07 05:26:03;;;;;;;12.17;4.63;;;;;;;;;;5023199;28;20223;-85
2023/07/07 05:28:30;;;;;;;6.93;3.90;;;;;;;;;;5020709;28;20258;-85
2023/07/07 05:30:57;;;;;;;5.90;4.20;;;;;;;;;;5021560;28;20262;-85
2023/07/07 05:33:26;;;;;;;4.63;4.00;;;;;;;;;;5024141;28;20656;-85
2023/07/07 05:35:54;;;;;;;7.20;4.10;;;;;;;;;;5024503;28;20206;-85
2023/07/07 05:38:22;;;;;;;6.93;4.50;;;;;;;;;;5000219;28;20226;-85
2023/07/07 05:40:50;;;;;;;7.10;4.70;;;;;;;;;;5024607;28;20823;-85
2023/07/07 05:43:18;;;;;;;5.90;4.83;;;;;;;;;;5020460;28;20720;-85
2023/07/07 05:45:45;;;;;;;4.93;4.30;;;;;;;;;;5021014;28;20207;-85
2023/07/07 05:48:13;;;;;;;6.57;4.67;;;;;;;;;;5022311;28;20239;-85
2023/07/07 05:50:42;;;;;;;4.57;4.17;;;;;;;;;;5018096;28;20208;-85
2023/07/07 05:53:09;;;;;;;5.60;4.37;;;;;;;;;;5028261;28;20241;-85
2023/07/07 05:55:36;;;;;;;5.27;4.63;;;;;;;;;;5020766;28;20208;-85
2023/07/07 05:58:04;;;;;;;4.77;4.07;;;;;;;;;;5020085;28;20257;-85
2023/07/07 06:00:32;;;;;;;4.97;4.43;;;;;;;;;;5020647;28;20792;-85
2023/07/07 06:02:59;;;;;;;5.97;4.20;;;;;;;;;;5020645;28;20235;-85
2023/07/07 06:05:27;;;;;;;5.00;4.40;;;;;;;;;;5024279;28;20214;-85
2023/07/07 06:07:56;;;;;;;7.97;5.07;;;;;;;;;;5023616;28;20333;-85
2023/07/07 06:10:24;;;;;;;8.90;4.10;;;;;;;;;;5012571;28;20573;-86
2023/07/07 06:12:51;;;;;;;5.37;4.20;;;;;;;;;;5019804;28;20230;-86
2023/07/07 06:15:19;;;;;;;8.13;4.27;;;;;;;;;;5015180;28;20206;-85
2023/07/07 06:17:46;;;;;;;4.77;4.37;;;;;;;;;;5023349;28;20504;-86
2023/07/07 06:20:13;;;;;;;6.83;4.30;;;;;;;;;;5021165;28;20214;-86
2023/07/07 06:22:40;;;;;;;4.27;3.83;;;;;;;;;;5019951;28;20250;-85
2023/07/07 06:25:10;;;;;;;3.73;3.43;;;;;;;;;;5021577;28;20207;-85
2023/07/07 06:27:37;;;;;;;6.47;3.97;;;;;;;;;;5017658;28;20219;-85
2023/07/07 06:30:04;;;;;;;7.10;3.90;;;;;;;;;;5020061;28;20211;-86
2023/07/07 06:32:31;;;;;;;4.67;3.83;;;;;;;;;;5020243;28;20235;-85
2023/07/07 06:34:58;;;;;;;4.17;3.33;;;;;;;;;;5019813;28;20285;-85
2023/07/07 06:37:26;;;;;;;4.00;3.53;;;;;;;;;;5023487;28;20250;-86
2023/07/07 06:39:53;;;;;;;4.67;3.70;;;;;;;;;;5022840;28;20231;-86
2023/07/07 06:42:21;;;;;;;4.77;2.87;;;;;;;;;;5019927;28;20231;-85
2023/07/07 06:44:48;;;;;;;4.90;3.27;;;;;;;;;;5019576;28;20227;-86
2023/07/07 06:47:16;;;;;;;3.47;2.80;;;;;;;;;;5022155;28;20234;-85
2023/07/07 06:49:43;;;;;;;3.90;3.00;;;;;;;;;;5022711;28;20257;-85
2023/07/07 06:52:10;;;;;;;3.75;2.80;;;;;;;;;;5015153;28;20231;-85
2023/07/07 06:54:37;;;;;;;3.83;3.17;;;;;;;;;;5023084;28;20241;-85
2023/07/07 06:57:05;;;;;;;5.07;3.05;;;;;;;;;;5022509;28;20203;-85
2023/07/07 06:59:34;;;;;;;3.28;2.97;;;;;;;;;;5022591;28;20233;-85
2023/07/07 07:02:01;;;;;;;3.85;3.35;;;;;;;;;;5023290;28;20242;-85
2023/07/07 07:04:28;;;;;;;6.38;3.17;;;;;;;;;;5023040;28;20226;-85
2023/07/07 07:06:56;;;;;;;3.08;2.78;;;;;;;;;;5023534;28;20230;-86
2023/07/07 07:09:23;;;;;;;6.03;3.20;;;;;;;;;;5019263;28;20235;-86
2023/07/07 07:11:50;;;;;;;6.65;3.05;;;;;;;;;;5026758;28;20218;-86
2023/07/07 07:14:17;;;;;;;3.05;2.60;;;;;;;;;;5020472;28;20237;-86
2023/07/07 07:16:45;;;;;;;3.10;2.50;;;;;;;;;;5020028;28;20214;-86
2023/07/07 07:19:12;;;;;;;3.35;2.50;;;;;;;;;;5021270;28;20235;-86
2023/07/07 07:21:39;;;;;;;2.63;2.40;;;;;;;;;;5023039;28;20222;-86
2023/07/07 07:24:06;;;;;;;3.85;2.55;;;;;;;;;;5021974;28;20241;-86
2023/07/07 07:26:33;;;;;;;3.13;2.47;;;;;;;;;;5024122;28;20743;-86
2023/07/07 07:29:00;;;;;;;2.60;2.40;;;;;;;;;;5023694;28;20222;-86
2023/07/07 07:31:28;;;;;;;3.50;2.45;;;;;;;;;;5023547;28;20218;-86
2023/07/07 07:33:56;;;;;;;5.82;2.95;;;;;;;;;;5023177;28;20310;-86
2023/07/07 07:36:23;;;;;;;3.10;2.10;;;;;;;;;;5031585;28;20215;-86
2023/07/07 07:38:51;;;;;;;2.30;2.10;;;;;;;;;;5022876;28;20235;-87
2023/07/07 07:41:18;;;;;;;2.50;2.10;;;;;;;;;;5025413;28;20204;-86
2023/07/07 07:43:45;;;;;;;1.90;1.80;;;;;;;;;;5026099;28;20234;-86
2023/07/07 07:46:12;;;;;;;2.40;2.20;;;;;;;;;;5025075;28;20409;-86
2023/07/07 07:48:39;;;;;;;2.72;2.40;;;;;;;;;;5022756;28;20254;-87
2023/07/07 07:51:07;;;;;;;2.50;1.85;;;;;;;;;;5023840;28;20294;-86
2023/07/07 07:53:34;;;;;;;2.92;2.00;;;;;;;;;;5026062;28;20245;-86
2023/07/07 07:56:01;;;;;;;2.20;1.90;;;;;;;;;;5026566;28;20683;-87
2023/07/07 07:58:28;;;;;;;3.92;2.00;;;;;;;;;;5014745;28;20644;-87
2023/07/07 08:00:55;;;;;;;2.42;2.00;;;;;;;;;;5023350;28;20724;-87
2023/07/07 08:03:22;;;;;;;1.63;1.52;;;;;;;;;;5024933;28;20746;-87
2023/07/07 08:05:49;;;;;;;3.25;1.73;;;;;;;;;;5026282;28;20211;-87
2023/07/07 08:08:18;;;;;;;7.10;2.20;;;;;;;;;;5025613;28;20241;-87
2023/07/07 08:10:45;;;;;;;2.53;1.85;;;;;;;;;;5020544;28;20219;-87
2023/07/07 08:13:12;;;;;;;2.70;2.20;;;;;;;;;;5022084;28;20607;-87
2023/07/07 08:15:39;;;;;;;8.75;1.90;;;;;;;;;;5022727;28;20211;-87
2023/07/07 08:18:06;;;;;;;1.77;1.67;;;;;;;;;;5022284;28;20235;-87
2023/07/07 08:20:33;;;;;;;2.90;1.65;;;;;;;;;;5026117;28;20221;-87
2023/07/07 08:23:00;;;;;;;4.53;1.85;;;;;;;;;;5018294;28;20272;-87
2023/07/07 08:25:29;;;;;;;2.33;1.80;;;;;;;;;;5022683;28;20257;-88
2023/07/07 08:27:56;;;;;;;2.10;1.75;;;;;;;;;;5021134;28;20239;-87
2023/07/07 08:30:23;;;;;;;3.25;2.00;;;;;;;;;;5023340;28;20207;-87
2023/07/07 08:32:50;;;;;;;5.53;1.67;;;;;;;;;;5021810;28;20227;-87
2023/07/07 08:35:17;;;;;;;1.85;1.75;;;;;;;;;;5024258;28;20231;-87
2023/07/07 08:37:44;;;;;;;1.88;1.73;;;;;;;;;;5025847;28;20682;-87
2023/07/07 08:40:14;;;;;;;2.92;2.00;;;;;;;;;;5024215;28;20238;-87
2023/07/07 08:42:43;;;;;;;2.05;1.60;;;;;;;;;;5028025;28;20235;-87
2023/07/07 08:45:14;;;;;;;1.80;1.70;;;;;;;;;;5023549;28;20219;-86
2023/07/07 08:47:46;;;;;;;2.50;1.70;;;;;;;;;;5025817;28;20273;-86
2023/07/07 08:50:17;;;;;;;2.10;1.90;;;;;;;;;;5025059;28;20276;-87
2023/07/07 08:52:47;;;;;;;2.03;1.80;;;;;;;;;;5022593;28;20223;-87
2023/07/07 08:55:23;;;;;;;2.13;1.73;;;;;;;;;;5024099;28;20223;-88
2023/07/07 08:57:55;;;;;;;2.78;1.90;;;;;;;;;;5025708;28;20661;-87
2023/07/07 09:00:24;;;;;;;2.45;1.80;;;;;;;;;;5023239;28;20210;-88
2023/07/07 09:02:58;;;;;;;2.03;1.77;;;;;;;;;;5021481;28;20239;-87
2023/07/07 09:05:33;;;;;;;1.75;1.52;;;;;;;;;;5030317;28;20210;-88
2023/07/07 09:08:04;;;;;;;2.30;1.90;;;;;;;;;;5021722;28;20239;-87
2023/07/07 09:10:36;;;;;;;3.67;1.88;;;;;;;;;;5022217;28;20206;-87
2023/07/07 09:13:08;;;;;;;1.88;1.63;;;;;;;;;;5021267;28;20286;-87
2023/07/07 09:15:37;;;;;;;3.38;1.98;;;;;;;;;;5001878;28;20579;-87
2023/07/07 09:18:07;;;;;;;2.50;1.70;;;;;;;;;;5017063;28;20330;-88
2023/07/07 09:20:36;;;;;;;3.15;2.00;;;;;;;;;;5014074;28;20215;-88
2023/07/07 09:23:06;;;;;;;2.05;1.80;;;;;;;;;;5021082;28;20243;-87
2023/07/07 09:25:36;;;;;;;2.22;1.98;;;;;;;;;;5009395;28;20290;-88
2023/07/07 09:28:04;;;;;;;2.10;1.83;;;;;;;;;;5024609;28;20234;-88
2023/07/07 09:30:34;;;;;;;2.08;1.70;;;;;;;;;;5025300;28;20210;-87
2023/07/07 09:33:01;;;;;;;3.63;1.83;;;;;;;;;;5024320;28;20234;-87
2023/07/07 09:35:32;;;;;;;2.53;2.00;;;;;;;;;;5021873;28;20211;-87
2023/07/07 09:38:07;;;;;;;2.38;2.00;;;;;;;;;;5021308;28;20262;-87
2023/07/07 09:40:38;;;;;;;5.05;1.85;;;;;;;;;;5013410;28;20218;-87
2023/07/07 09:43:13;;;;;;;5.32;2.10;;;;;;;;;;5052056;22;20234;-87
2023/07/07 09:45:44;;;;;;;2.17;2.00;;;;;;;;;;5025785;28;20561;-87
2023/07/07 09:48:18;;;;;;;2.72;2.00;;;;;;;;;;5032037;28;20241;-87
2023/07/07 09:50:48;;;;;;;2.10;1.90;;;;;;;;;;5032968;28;20206;-87
2023/07/07 09:53:18;;;;;;;1.70;1.60;;;;;;;;;;5031684;28;20621;-87
2023/07/07 09:55:46;;;;;;;2.67;2.22;;;;;;;;;;5032612;28;20695;-87
2023/07/07 09:58:16;;;;;;;4.22;2.00;;;;;;;;;;5031889;28;20231;-87
2023/07/07 10:00:45;;;;;;;2.50;2.00;;;;;;;;;;5032783;28;20214;-87
2023/07/07 10:03:17;;;;;;;2.42;2.15;;;;;;;;;;5031815;28;20242;-87
2023/07/07 10:05:44;;;;;;;3.38;2.17;;;;;;;;;;5032237;28;20229;-87
2023/07/07 10:08:13;;;;;;;3.80;2.40;;;;;;;;;;5031548;28;20651;-86
2023/07/07 10:10:40;;;;;;;3.40;2.45;;;;;;;;;;5032630;28;20203;-87
2023/07/07 10:13:09;;;;;;;2.50;2.22;;;;;;;;;;5031862;28;20235;-87
2023/07/07 10:15:51;;;;;;;3.10;2.15;;;;;;;;;;5025975;28;20206;-87
2023/07/07 10:18:22;;;;;;;2.88;2.33;;;;;;;;;;5029802;28;20258;-87
2023/07/07 10:20:49;;;;;;;2.70;2.50;;;;;;;;;;5032746;28;20213;-87
2023/07/07 10:23:16;;;;;;;3.90;2.30;;;;;;;;;;5031621;28;20245;-87
2023/07/07 10:25:44;;;;;;;2.78;2.55;;;;;;;;;;5031890;28;20670;-87
2023/07/07 10:28:12;;;;;;;5.97;2.47;;;;;;;;;;5031566;28;20238;-86
2023/07/07 10:30:39;;;;;;;2.83;2.15;;;;;;;;;;5032714;28;20774;-87
2023/07/07 10:33:09;;;;;;;2.42;2.22;;;;;;;;;;5031618;28;20238;-87
2023/07/07 10:35:38;;;;;;;2.80;2.35;;;;;;;;;;5015837;28;20206;-87
2023/07/07 10:38:05;;;;;;;3.38;2.40;;;;;;;;;;5031410;28;20233;-87
2023/07/07 10:40:33;;;;;;;2.90;2.60;;;;;;;;;;5031743;28;20198;-87
2023/07/07 10:43:00;;;;;;;2.88;2.50;;;;;;;;;;5031582;28;20300;-87
2023/07/07 10:45:28;;;;;;;2.83;2.60;;;;;;;;;;5031605;28;20205;-87
2023/07/07 10:47:55;;;;;;;3.15;2.70;;;;;;;;;;5031510;28;20234;-87
2023/07/07 10:50:25;;;;;;;3.30;3.00;;;;;;;;;;5031513;28;20198;-87
2023/07/07 10:53:00;;;;;;;3.35;2.58;;;;;;;;;;5031425;28;20222;-87
2023/07/07 10:55:30;;;;;;;2.67;2.47;;;;;;;;;;5031681;28;20210;-86
2023/07/07 10:58:06;;;;;;;5.85;2.90;;;;;;;;;;5031091;28;20723;-87
2023/07/07 11:00:38;;;;;;;3.53;2.60;;;;;;;;;;5031657;28;20202;-87
2023/07/07 11:03:15;;;;;;;2.42;2.22;;;;;;;;;;5030799;28;20238;-88
2023/07/07 11:05:45;;;;;;;3.92;2.70;;;;;;;;;;5024325;28;20805;-88
2023/07/07 11:08:23;;;;;;;3.78;2.95;;;;;;;;;;5030664;28;20244;-88
2023/07/07 11:10:58;;;;;;;3.83;2.50;;;;;;;;;;5025211;28;20209;-87
2023/07/07 11:13:33;;;;;;;3.03;2.72;;;;;;;;;;5030779;28;20312;-88
2023/07/07 11:16:07;;;;;;;3.63;2.90;;;;;;;;;;5031476;28;20296;-88
2023/07/07 11:18:44;;;;;;;4.35;2.88;;;;;;;;;;5030529;28;20233;-88
2023/07/07 11:21:17;;;;;;;2.85;2.63;;;;;;;;;;5031219;28;20217;-87
2023/07/07 11:23:55;;;;;;;4.15;2.72;;;;;;;;;;5030572;28;20708;-87
2023/07/07 11:26:26;;;;;;;9.50;3.20;;;;;;;;;;5031179;28;20620;-88
2023/07/07 11:28:59;;;;;;;2.88;2.65;;;;;;;;;;5041504;28;20694;-88
2023/07/07 11:31:32;;;;;;;4.47;3.25;;;;;;;;;;5050965;28;20232;-88
2023/07/07 11:34:09;;;;;;;4.43;3.15;;;;;;;;;;5050569;28;20736;-88
2023/07/07 11:36:41;;;;;;;5.65;3.30;;;;;;;;;;5051303;28;20208;-88
2023/07/07 11:39:18;;;;;;;5.65;3.88;;;;;;;;;;5050730;28;20245;-88
2023/07/07 11:41:54;;;;;;;3.92;3.53;;;;;;;;;;5043715;28;20288;-88
2023/07/07 11:44:40;;;;;;;4.03;3.45;;;;;;;;;;5052465;28;20615;-87
2023/07/07 11:47:15;;;;;;;5.10;4.22;;;;;;;;;;5051085;28;20202;-87
2023/07/07 11:49:50;;;;;;;8.00;4.13;;;;;;;;;;5034483;28;20232;-87
2023/07/07 11:52:22;;;;;;;9.38;4.05;;;;;;;;;;5051341;28;20255;-88
2023/07/07 11:54:57;;;;;;;4.45;3.95;;;;;;;;;;5050523;28;20734;-87
2023/07/07 11:57:41;;;;;;;8.55;4.75;;;;;;;;;;5051409;28;20189;-87
2023/07/07 12:00:14;;;;;;;5.32;4.47;;;;;;;;;;5051098;28;20642;-87
2023/07/07 12:02:44;;;;;;;5.88;4.03;;;;;;;;;;5051861;28;20248;-87
2023/07/07 12:05:13;;;;;;;4.82;4.32;;;;;;;;;;5052096;28;20213;-87
2023/07/07 12:07:45;;;;;;;5.68;4.55;;;;;;;;;;5054080;28;20287;-87
2023/07/07 12:10:18;;;;;;;5.25;3.88;;;;;;;;;;5052064;28;20605;-87
2023/07/07 12:12:47;;;;;;;5.93;3.97;;;;;;;;;;5052732;28;20273;-87
2023/07/07 12:15:17;;;;;;;10.15;4.20;;;;;;;;;;5053346;28;20267;-88
2023/07/07 12:17:48;;;;;;;5.57;4.05;;;;;;;;;;5054856;28;20297;-87
2023/07/07 12:20:16;;;;;;;5.35;4.10;;;;;;;;;;5055202;28;20206;-87
2023/07/07 12:22:45;;;;;;;6.60;4.78;;;;;;;;;;5054487;28;20229;-87
2023/07/07 12:25:21;;;;;;;4.63;3.97;;;;;;;;;;5054421;28;20213;-87
2023/07/07 12:27:51;;;;;;;5.28;4.53;;;;;;;;;;5063128;28;20205;-86
2023/07/07 12:30:21;;;;;;;5.57;4.22;;;;;;;;;;5066009;28;20217;-86
2023/07/07 12:32:48;;;;;;;5.63;4.65;;;;;;;;;;5062374;28;20622;-85
2023/07/07 12:35:16;;;;;;;4.88;4.15;;;;;;;;;;5061790;28;20205;-87
2023/07/07 12:37:43;;;;;;;4.63;4.20;;;;;;;;;;5067835;28;20205;-86
2023/07/07 12:40:15;;;;;;;6.05;3.92;;;;;;;;;;5063484;28;20201;-88
2023/07/07 12:42:45;;;;;;;4.90;4.40;;;;;;;;;;5065974;28;20670;-86
2023/07/07 12:45:18;;;;;;;4.72;4.32;;;;;;;;;;5066398;28;20227;-84
2023/07/07 12:47:46;;;;;;;4.72;4.28;;;;;;;;;;5063191;28;20651;-86
2023/07/07 12:50:27;;;;;;;5.18;4.22;;;;;;;;;;5054073;28;20229;-85
2023/07/07 12:52:55;;;;;;;4.97;4.55;;;;;;;;;;5054158;28;20734;-88
2023/07/07 12:55:24;;;;;;;5.00;4.32;;;;;;;;;;5054986;28;20216;-88
2023/07/07 12:58:10;;;;;;;6.10;5.00;;;;;;;;;;5053945;28;20202;-86
2023/07/07 13:00:41;;;;;;;7.60;4.95;;;;;;;;;;5054117;28;20216;-89
2023/07/07 13:03:15;;;;;;;5.45;4.90;;;;;;;;;;5053268;28;20240;-87
2023/07/07 13:05:44;;;;;;;5.53;4.85;;;;;;;;;;5054156;28;20196;-88
2023/07/07 13:08:11;;;;;;;6.15;5.13;;;;;;;;;;5053071;28;20237;-88
2023/07/07 13:10:47;;;;;;;5.38;4.88;;;;;;;;;;5053887;28;20210;-88
2023/07/07 13:13:19;;;;;;;6.78;4.70;;;;;;;;;;5053423;28;20275;-88
2023/07/07 13:15:47;;;;;;;6.38;4.80;;;;;;;;;;5053390;28;20202;-88
2023/07/07 13:18:15;;;;;;;6.25;4.43;;;;;;;;;;5052735;28;20233;-89
2023/07/07 13:20:42;;;;;;;5.43;4.90;;;;;;;;;;5053329;28;20300;-88
2023/07/07 13:23:16;;;;;;;6.43;4.60;;;;;;;;;;5052957;28;20233;-88
2023/07/07 13:25:46;;;;;;;6.43;4.85;;;;;;;;;;5053148;28;20213;-88
2023/07/07 13:28:14;;;;;;;5.90;4.82;;;;;;;;;;5051940;28;20225;-87
2023/07/07 13:30:42;;;;;;;6.13;5.03;;;;;;;;;;5053193;28;20212;-89
2023/07/07 13:33:12;;;;;;;7.15;5.05;;;;;;;;;;5052603;28;20653;-87
2023/07/07 13:35:41;;;;;;;5.50;5.00;;;;;;;;;;5053141;28;20221;-87
2023/07/07 13:38:11;;;;;;;7.47;5.40;;;;;;;;;;5052663;28;20233;-88
2023/07/07 13:40:38;;;;;;;7.15;5.30;;;;;;;;;;5053296;28;20213;-89
2023/07/07 13:43:07;;;;;;;6.22;5.53;;;;;;;;;;5052399;28;20257;-89
2023/07/07 13:45:36;;;;;;;5.95;4.80;;;;;;;;;;5052860;28;20237;-89
2023/07/07 13:48:09;;;;;;;5.10;4.35;;;;;;;;;;5052182;28;20694;-88
2023/07/07 13:50:38;;;;;;;5.15;4.63;;;;;;;;;;5053211;28;20186;-89
2023/07/07 13:53:07;;;;;;;5.72;4.63;;;;;;;;;;5052383;28;20240;-88
2023/07/07 13:55:36;;;;;;;6.35;5.47;;;;;;;;;;5052617;28;20217;-89
2023/07/07 13:58:04;;;;;;;5.65;4.82;;;;;;;;;;5052206;28;20580;-89
2023/07/07 14:00:33;;;;;;;8.75;5.22;;;;;;;;;;5052979;28;20574;-89
2023/07/07 14:03:00;;;;;;;6.25;5.18;;;;;;;;;;5052176;28;20240;-89
2023/07/07 14:05:29;;;;;;;7.28;4.93;;;;;;;;;;5052513;28;20259;-89
2023/07/07 14:07:58;;;;;;;6.97;5.22;;;;;;;;;;5052348;28;20242;-88
2023/07/07 14:10:30;;;;;;;6.55;5.28;;;;;;;;;;5052400;28;20226;-89
2023/07/07 14:12:57;;;;;;;6.22;5.00;;;;;;;;;;5051902;28;20240;-88
2023/07/07 14:15:28;;;;;;;6.97;5.15;;;;;;;;;;5052296;28;20202;-90
2023/07/07 14:17:56;;;;;;;7.20;4.80;;;;;;;;;;5052010;28;20236;-88
2023/07/07 14:20:24;;;;;;;9.13;4.93;;;;;;;;;;5052165;28;20644;-85
2023/07/07 14:22:52;;;;;;;9.52;5.25;;;;;;;;;;5052355;28;20304;-87
2023/07/07 14:25:22;;;;;;;8.32;5.13;;;;;;;;;;5052983;28;20608;-86
2023/07/07 14:27:49;;;;;;;10.88;5.10;;;;;;;;;;5052872;28;20715;-88
2023/07/07 14:30:17;;;;;;;6.43;5.25;;;;;;;;;;5055349;28;20233;-88
2023/07/07 14:32:45;;;;;;;6.20;4.97;;;;;;;;;;5052866;28;20230;-88
2023/07/07 14:35:15;;;;;;;8.38;5.30;;;;;;;;;;5055834;28;20206;-89
2023/07/07 14:37:48;;;;;;;7.78;5.57;;;;;;;;;;5054709;28;20583;-90
2023/07/07 14:40:32;;;;;;;5.75;5.05;;;;;;;;;;5055255;28;20226;-89
2023/07/07 14:43:03;;;;;;;8.93;5.60;;;;;;;;;;5057021;28;20233;-88
2023/07/07 14:45:31;;;;;;;6.05;5.30;;;;;;;;;;5057435;28;20206;-87
2023/07/07 14:47:58;;;;;;;7.70;5.40;;;;;;;;;;5053595;28;20233;-87
2023/07/07 14:50:25;;;;;;;10.30;5.40;;;;;;;;;;5056269;28;20233;-88
2023/07/07 14:52:54;;;;;;;8.07;5.45;;;;;;;;;;5057302;28;20245;-88
2023/07/07 14:55:22;;;;;;;6.07;5.05;;;;;;;;;;5056323;28;20202;-89